Flight Track Log - Related Links

Times and Time Zones

All times are in EDT time to prevent confusion due to time zone crossing. See the SWA385 flight status page for this flight to view local times or setup timezone preferences in your user account.

Time Position Orientation Groundspeed Altitude Reporting Facility
EDT Latitude Longitude Course Direction KTS MPH feet Rate Location/Type
Mon 05:07:29 PM 38.9167 -77.4500 218° Southwest 169 194 1,700  Level Potomac TRACON
Mon 05:08:29 PM 38.8667 -77.5000 218° Southwest 206 237 3,900 2,430 Climbing Potomac TRACON
Mon 05:09:30 PM 38.8167 -77.5500 218° Southwest 255 293 6,600 2,974 Climbing Potomac TRACON
Mon 05:10:24 PM 38.7833 -77.6333 243° Southwest 264 304 9,600 2,949 Climbing Potomac TRACON
Mon 05:11:28 PM 38.7736 -77.7164 261° West 290 334 12,400 2,640 Climbing Washington Center
Mon 05:12:29 PM 38.8181 -77.8083 302° West 296 341 15,100 2,705 Climbing Washington Center
Mon 05:13:30 PM 38.8658 -77.9164 300° West 317 365 17,900 2,678 Climbing Washington Center
Mon 05:14:30 PM 38.9031 -78.0378 292° West 349 402 20,500 2,847 Climbing Washington Center
Mon 05:15:28 PM 38.9422 -78.1617 292° West 368 423 23,500 2,746 Climbing Washington Center
Mon 05:16:28 PM 38.9622 -78.2961 281° West 381 438 25,900 1,983 Climbing Washington Center
Mon 05:17:29 PM 38.9672 -78.4456 273° West 400 460 27,500 1,525 Climbing Washington Center
Mon 05:18:30 PM 38.9717 -78.5981 272° West 418 481 29,000 1,412 Climbing Washington Center
Mon 05:19:28 PM 38.9758 -78.7611 272° West 440 506 30,300 1,678 Climbing Washington Center
Mon 05:20:28 PM 38.9819 -78.9269 273° West 463 533 32,300 2,262 Climbing Washington Center
Mon 05:21:30 PM 38.9856 -79.0875 272° West 463 533 34,900 2,213 Climbing Washington Center
Mon 05:22:30 PM 38.9892 -79.2450 272° West 451 519 36,800 1,424 Climbing Washington Center
Mon 05:23:28 PM 38.9928 -79.4003 272° West 445 512 37,700 857 Climbing Washington Center
Mon 05:24:29 PM 38.9961 -79.5553 272° West 439 505 38,500 683 Climbing Washington Center
Mon 05:26:50 PM 39.0383 -79.9375 278° West 426 490 40,000 443 Climbing Indianapolis Center
Mon 05:27:52 PM 39.0900 -80.0672 297° West 422 486 40,000  Level Indianapolis Center
Mon 05:28:54 PM 39.1481 -80.2119 297° West 420 483 40,000  Level Indianapolis Center
Mon 05:29:55 PM 39.2022 -80.3458 298° West 421 484 40,000  Level Indianapolis Center
Mon 05:30:57 PM 39.2550 -80.4803 297° West 422 486 40,000  Level Indianapolis Center
Mon 05:31:59 PM 39.3097 -80.6153 298° West 426 490 40,000  Level Indianapolis Center
Mon 05:33:01 PM 39.3625 -80.7506 297° West 424 488 40,000  Level Indianapolis Center
Mon 05:34:02 PM 39.4164 -80.8897 297° West 433 498 40,000  Level Indianapolis Center
Mon 05:35:04 PM 39.4708 -81.0278 297° West 432 497 40,000  Level Indianapolis Center
Mon 05:36:06 PM 39.5344 -81.1922 297° West 427 491 40,000  Level Indianapolis Center
Mon 05:37:08 PM 39.5850 -81.3253 296° West 416 479 40,000  Level Indianapolis Center
Mon 05:38:09 PM 39.6367 -81.4586 297° West 415 478 40,000  Level Indianapolis Center
Mon 05:39:11 PM 39.6872 -81.5922 296° West 414 476 40,000  Level Indianapolis Center
Mon 05:40:13 PM 39.7406 -81.7325 296° West 415 478 40,000  Level Indianapolis Center
Mon 05:41:15 PM 39.7922 -81.8658 297° West 411 473 40,000  Level Indianapolis Center
Mon 05:42:17 PM 39.8422 -81.9992 296° West 407 468 40,000  Level Indianapolis Center
Mon 05:43:18 PM 39.8908 -82.1314 296° West 403 464 40,000  Level Indianapolis Center
Mon 05:44:20 PM 39.9500 -82.2864 297° West 407 468 40,000  Level Indianapolis Center
Mon 05:45:22 PM 39.9992 -82.4194 296° West 405 466 40,000  Level Indianapolis Center
Mon 05:46:24 PM 40.0494 -82.5547 296° West 409 471 40,000  Level Indianapolis Center
Mon 05:47:26 PM 40.0989 -82.6892 296° West 409 471 40,000  Level Indianapolis Center
Mon 05:48:27 PM 40.1500 -82.8250 296° West 413 475 40,000  Level Indianapolis Center
Mon 05:49:29 PM 40.1983 -82.9619 295° West 415 478 40,000  Level Indianapolis Center
Mon 05:50:31 PM 40.2492 -83.0997 296° West 419 482 40,000  Level Indianapolis Center
Mon 05:51:33 PM 40.3078 -83.2625 295° West 423 487 40,000  Level Indianapolis Center
Mon 05:52:35 PM 40.3583 -83.4033 295° West 425 489 40,000 -98 Level Indianapolis Center
Mon 05:53:36 PM 40.4086 -83.5442 295° West 426 490 39,800 -634 Descending Indianapolis Center
Mon 05:54:38 PM 40.4581 -83.6819 295° West 418 481 38,700 -968 Descending Indianapolis Center
Mon 05:55:40 PM 40.5069 -83.8214 295° West 418 481 37,800 -871 Descending Indianapolis Center
Mon 05:56:42 PM 40.5564 -83.9608 295° West 419 482 36,900 -1,065 Descending Indianapolis Center
Mon 05:57:44 PM 40.6056 -84.1011 295° West 419 482 35,600 -1,805 Descending Indianapolis Center
Mon 05:58:45 PM 40.6622 -84.2625 295° West 415 478 33,200 -2,293 Descending Indianapolis Center
Mon 05:59:47 PM 40.7100 -84.4019 294° West 416 479 30,900 -1,548 Descending Indianapolis Center
Mon 06:00:49 PM 40.7578 -84.5361 295° West 405 466 30,000 -435 Descending Indianapolis Center
Mon 06:01:51 PM 40.8022 -84.6697 294° West 396 456 30,000  Level Indianapolis Center
Mon 06:02:52 PM 40.8486 -84.8028 295° West 397 457 30,000 -49 Level Indianapolis Center
Mon 06:03:53 PM 40.8981 -84.9469 294° West 396 456 29,900 -537 Descending Chicago Center
Mon 06:04:55 PM 40.9439 -85.0817 294° West 398 458 28,900 -919 Descending Chicago Center
Mon 06:05:57 PM 41.0033 -85.2039 303° West 406 467 28,000 -919 Descending Chicago Center
Mon 06:06:59 PM 41.0981 -85.2797 329° Northwest 400 460 27,000 -960 Descending Chicago Center
Mon 06:08:02 PM 41.1792 -85.3772 318° Northwest 393 452 26,000 -816 Descending Chicago Center
Mon 06:09:04 PM 41.2442 -85.4981 306° West 400 460 25,300 -1,161 Descending Chicago Center
Mon 06:10:06 PM 41.3058 -85.6150 305° West 387 445 23,600 -1,548 Descending Chicago Center
Mon 06:11:08 PM 41.3794 -85.7539 305° West 382 440 22,100 -1,645 Descending Chicago Center
Mon 06:12:10 PM 41.4389 -85.8669 305° West 374 430 20,200 -2,129 Descending Chicago Center
Mon 06:13:12 PM 41.4636 -85.9986 284° West 364 419 17,700 -2,129 Descending Chicago Center
Mon 06:14:14 PM 41.4842 -86.1281 282° West 360 414 15,800 -2,129 Descending Chicago Center
Mon 06:15:16 PM 41.5011 -86.2522 280° West 345 397 13,300 -2,177 Descending Chicago Center
Mon 06:16:18 PM 41.5203 -86.3711 282° West 331 381 11,300 -1,452 Descending Chicago Center
Mon 06:17:20 PM 41.5219 -86.4850 271° West 308 354 10,300 -581 Descending Chicago Center
Mon 06:18:22 PM 41.5208 -86.6175 269° West 294 338 10,100 -484 Descending Chicago Center
Mon 06:19:24 PM 41.5214 -86.7106 270° West 275 316 9,300 -823 Descending Chicago Center
Mon 06:20:26 PM 41.5194 -86.8061 268° West 261 300 8,400 -1,016 Descending Chicago Center
Mon 06:21:28 PM 41.5181 -86.9219 269° West 261 300 7,200 -1,065 Descending Chicago Center
Mon 06:22:30 PM 41.5183 -87.0164 270° West 258 297 6,200 -576 Descending Chicago Center
Mon 06:23:33 PM 41.5172 -87.1056 269° West 247 284 6,000 -96 Descending Chicago Center
Mon 06:24:35 PM 41.5172 -87.1956 270° West 244 281 6,000  Level Chicago Center
Mon 06:25:37 PM 41.5150 -87.2858 268° West 245 282 6,000 -484 Level Chicago Center
Mon 06:26:39 PM 41.5358 -87.3911 285° West 247 284 5,000 -484 Descending Chicago Center
Mon 06:27:41 PM 41.5700 -87.4556 305° West 218 251 5,000  Level Chicago Center
Mon 06:28:42 PM 41.6042 -87.4981 317° Northwest 181 208 5,000 -146 Level Chicago Center
Mon 06:29:44 PM 41.6350 -87.5428 313° West 169 194 4,700 -576 Descending Chicago Center
Mon 06:30:47 PM 41.6675 -87.5881 314° West 169 194 3,800 -1,056 Descending Chicago Center
Mon 06:31:49 PM 41.7075 -87.6431 314° West 171 197 2,500 -968 Descending Chicago Center
Mon 06:32:51 PM 41.7439 -87.6792 323° Northwest 177 204 1,800 -484 Descending Chicago Center
Mon 06:33:53 PM 41.7925 -87.6778 North 177 204 1,500 -290 Descending Chicago Center
Mon 06:34:55 PM 41.8144 -87.7097 313° West 154 177 1,200 -242 Descending Chicago Center
Mon 06:35:57 PM 41.7847 -87.7611 232° Southwest 150 173 1,000 -194 Descending Chicago Center
Mon 06:37:00 PM 41.7833 -87.7500 340° North  Level FlightAware Approximate

Login

Don't have an account? Register now (free) for customized features, flight alerts, and more!